Time;durP1;ratioP1;P1;durP2;ratioP2;P2;SDS_P1;SDS_P2;PMS_P1;PMS_P2;Temp;Humidity;BMP_temperature;BMP_pressure;BME280_temperature;BME280_humidity;BME280_pressure;Samples;Min_cycle;Max_cycle;Signal;HPM_P1;HPM_P2
2021/10/11 00:03:06;;;;;;;46.00;23.73;;;;;12.40;102190.00;;;;10335151;28;20246;-80
2021/10/11 00:08:07;;;;;;;46.63;24.07;;;;;12.30;102193.00;;;;10320587;28;20268;-81
2021/10/11 00:13:09;;;;;;;45.90;24.33;;;;;12.30;102199.00;;;;10320771;28;20196;-81
2021/10/11 00:18:10;;;;;;;52.40;24.63;;;;;12.20;102199.00;;;;10336104;28;20214;-82
2021/10/11 00:23:15;;;;;;;44.63;22.80;;;;;12.10;102193.00;;;;10320800;28;20238;-81
2021/10/11 00:28:16;;;;;;;41.10;22.63;;;;;12.00;102194.00;;;;10320190;28;20246;-81
2021/10/11 00:33:17;;;;;;;41.77;21.03;;;;;11.90;102204.00;;;;10320538;28;20199;-81
2021/10/11 00:38:18;;;;;;;42.13;20.30;;;;;11.80;102203.00;;;;10320491;28;20571;-81
2021/10/11 00:43:20;;;;;;;40.77;19.53;;;;;11.80;102203.00;;;;10295498;28;20222;-81
2021/10/11 00:48:21;;;;;;;36.30;18.03;;;;;11.70;102213.00;;;;10320627;28;20623;-81
2021/10/11 00:53:23;;;;;;;37.17;17.50;;;;;11.60;102211.00;;;;10281015;28;20626;-81
2021/10/11 00:58:24;;;;;;;50.10;17.87;;;;;11.50;102212.00;;;;10303236;28;20544;-81
2021/10/11 01:03:26;;;;;;;30.23;16.10;;;;;11.40;102207.00;;;;10319719;28;20222;-81
2021/10/11 01:08:28;;;;;;;35.77;16.20;;;;;11.40;102212.00;;;;10335546;28;20191;-81
2021/10/11 01:13:29;;;;;;;34.00;13.90;;;;;11.50;102196.00;;;;10319305;28;20199;-81
2021/10/11 01:18:31;;;;;;;26.70;12.90;;;;;11.40;102202.00;;;;10303045;28;20216;-81
2021/10/11 01:23:32;;;;;;;31.80;13.50;;;;;11.40;102198.00;;;;10295387;28;20219;-81
2021/10/11 01:28:33;;;;;;;29.47;11.63;;;;;11.20;102196.00;;;;10319173;28;20571;-81
2021/10/11 01:33:34;;;;;;;25.90;11.63;;;;;11.10;102197.00;;;;10281407;28;20196;-81
2021/10/11 01:38:35;;;;;;;23.53;10.73;;;;;11.00;102202.00;;;;10335340;28;20196;-81
2021/10/11 01:43:37;;;;;;;22.33;10.83;;;;;10.90;102199.00;;;;10318953;28;20254;-81
2021/10/11 01:48:38;;;;;;;28.03;10.93;;;;;10.80;102202.00;;;;10334443;28;20715;-81
2021/10/11 01:53:39;;;;;;;19.17;9.27;;;;;10.70;102205.00;;;;10323531;28;20210;-82
2021/10/11 01:58:41;;;;;;;28.03;10.87;;;;;10.60;102205.00;;;;10309496;28;20207;-81
2021/10/11 02:03:42;;;;;;;20.83;10.57;;;;;10.50;102205.00;;;;10324558;28;20230;-81
2021/10/11 02:08:43;;;;;;;23.87;10.50;;;;;10.50;102210.00;;;;10324946;28;20192;-81
2021/10/11 02:13:44;;;;;;;19.77;10.60;;;;;10.40;102205.00;;;;10308481;28;20659;-81
2021/10/11 02:18:45;;;;;;;26.83;10.80;;;;;10.40;102212.00;;;;10324351;28;20207;-81
2021/10/11 02:23:47;;;;;;;20.80;9.50;;;;;10.30;102201.00;;;;10324097;28;20218;-81
2021/10/11 02:28:48;;;;;;;19.40;8.50;;;;;10.30;102195.00;;;;10340596;28;20200;-81
2021/10/11 02:33:50;;;;;;;19.70;9.03;;;;;10.20;102181.00;;;;10324389;28;20669;-81
2021/10/11 02:38:51;;;;;;;14.43;7.97;;;;;10.30;102190.00;;;;10340629;28;20206;-81
2021/10/11 02:43:53;;;;;;;21.13;8.70;;;;;10.40;102188.00;;;;10339274;28;20563;-81
2021/10/11 02:48:54;;;;;;;17.70;7.87;;;;;10.50;102188.00;;;;10338778;28;20203;-81
2021/10/11 02:53:55;;;;;;;19.20;7.60;;;;;10.50;102187.00;;;;10322886;28;20223;-81
2021/10/11 02:58:56;;;;;;;16.43;7.37;;;;;10.50;102186.00;;;;10339670;28;20200;-81
2021/10/11 03:03:58;;;;;;;16.23;7.10;;;;;10.50;102191.00;;;;10354684;28;20740;-81
2021/10/11 03:08:59;;;;;;;22.87;7.40;;;;;10.50;102195.00;;;;10323024;28;20272;-81
2021/10/11 03:14:01;;;;;;;27.53;8.40;;;;;10.50;102198.00;;;;10322964;28;20679;-81
2021/10/11 03:19:03;;;;;;;20.23;8.03;;;;;10.50;102200.00;;;;10323002;28;20218;-81
2021/10/11 03:24:04;;;;;;;20.27;7.90;;;;;10.50;102193.00;;;;10306881;28;20226;-81
2021/10/11 03:29:06;;;;;;;17.63;6.93;;;;;10.40;102191.00;;;;10322549;28;20200;-81
2021/10/11 03:34:07;;;;;;;19.50;6.90;;;;;10.40;102180.00;;;;10314592;28;20281;-81
2021/10/11 03:39:09;;;;;;;12.23;6.80;;;;;10.30;102176.00;;;;10331388;28;20196;-81
2021/10/11 03:44:10;;;;;;;16.63;7.63;;;;;10.20;102168.00;;;;10311511;28;20246;-81
2021/10/11 03:49:11;;;;;;;22.73;7.47;;;;;10.10;102178.00;;;;10321800;28;20203;-81
2021/10/11 03:54:12;;;;;;;16.37;7.87;;;;;10.00;102178.00;;;;10341060;28;20234;-81
2021/10/11 03:59:14;;;;;;;17.33;7.70;;;;;10.00;102174.00;;;;10367128;28;20210;-81
2021/10/11 04:04:16;;;;;;;14.37;7.47;;;;;9.90;102182.00;;;;10320413;28;20219;-81
2021/10/11 04:09:17;;;;;;;14.80;7.60;;;;;9.90;102178.00;;;;10303965;28;20196;-81
2021/10/11 04:14:18;;;;;;;13.53;7.43;;;;;9.80;102181.00;;;;10319968;28;20227;-81
2021/10/11 04:19:19;;;;;;;13.80;6.80;;;;;9.80;102188.00;;;;10321360;28;20196;-81
2021/10/11 04:24:21;;;;;;;15.27;7.17;;;;;9.70;102183.00;;;;10320397;28;20219;-81
2021/10/11 04:29:22;;;;;;;16.30;7.87;;;;;9.60;102183.00;;;;10310754;28;20199;-81
2021/10/11 04:34:23;;;;;;;19.80;8.27;;;;;9.60;102189.00;;;;10305608;28;20202;-84
2021/10/11 04:39:24;;;;;;;13.57;7.90;;;;;9.70;102199.00;;;;10335381;28;20242;-84
2021/10/11 04:44:27;;;;;;;19.53;8.80;;;;;9.70;102193.00;;;;10334444;28;20433;-82
2021/10/11 04:49:28;;;;;;;18.07;9.23;;;;;9.80;102192.00;;;;10312470;28;20200;-82
2021/10/11 04:54:29;;;;;;;16.80;7.83;;;;;9.90;102195.00;;;;10311160;28;20237;-83
2021/10/11 04:59:31;;;;;;;15.77;7.10;;;;;9.90;102221.00;;;;10350822;28;20203;-82
2021/10/11 05:04:32;;;;;;;16.10;7.20;;;;;10.00;102225.00;;;;10333778;28;20937;-82
2021/10/11 05:09:34;;;;;;;20.47;7.23;;;;;10.00;102229.00;;;;10320644;28;20222;-82
2021/10/11 05:14:35;;;;;;;12.03;6.40;;;;;10.00;102227.00;;;;10334651;28;20195;-82
2021/10/11 05:19:37;;;;;;;11.43;5.97;;;;;10.00;102232.00;;;;10312811;28;20223;-82
2021/10/11 05:24:38;;;;;;;12.37;6.20;;;;;10.00;102216.00;;;;10334687;28;20215;-81
2021/10/11 05:29:39;;;;;;;15.17;4.87;;;;;9.90;102214.00;;;;10327726;28;20202;-82
2021/10/11 05:34:40;;;;;;;13.17;4.97;;;;;9.80;102201.00;;;;10313963;28;20195;-82
2021/10/11 05:39:42;;;;;;;15.60;5.10;;;;;9.50;102209.00;;;;10362719;28;20894;-82
2021/10/11 05:44:43;;;;;;;14.33;4.87;;;;;9.40;102214.00;;;;10342421;28;20227;-81
2021/10/11 05:49:44;;;;;;;11.13;4.97;;;;;9.30;102200.00;;;;10341321;28;20203;-81
2021/10/11 05:54:46;;;;;;;21.40;5.70;;;;;9.20;102195.00;;;;10358018;28;20215;-81
2021/10/11 05:59:47;;;;;;;17.73;6.53;;;;;9.20;102216.00;;;;10342390;28;20196;-81
2021/10/11 06:04:48;;;;;;;15.73;5.93;;;;;9.10;102200.00;;;;10374898;28;20272;-81
2021/10/11 06:09:49;;;;;;;10.90;5.77;;;;;9.10;102207.00;;;;10340052;28;20663;-83
2021/10/11 06:14:52;;;;;;;19.73;5.83;;;;;9.10;102202.00;;;;10339663;28;20207;-83
2021/10/11 06:19:53;;;;;;;14.60;5.57;;;;;9.10;102210.00;;;;10317571;28;20203;-81
2021/10/11 06:24:55;;;;;;;16.30;6.13;;;;;9.20;102222.00;;;;10343099;28;20728;-80
2021/10/11 06:29:56;;;;;;;15.90;7.17;;;;;9.30;102233.00;;;;10323262;28;20196;-80
2021/10/11 06:34:58;;;;;;;12.87;5.73;;;;;9.40;102237.00;;;;10339718;28;20277;-81
2021/10/11 06:40:00;;;;;;;16.23;5.67;;;;;9.40;102231.00;;;;10322926;28;20200;-81
2021/10/11 06:45:01;;;;;;;23.60;5.27;;;;;9.50;102224.00;;;;10305627;28;20242;-80
2021/10/11 06:50:05;;;;;;;18.33;6.33;;;;;9.60;102232.00;;;;10338590;28;20679;-81
2021/10/11 06:55:07;;;;;;;23.93;6.40;;;;;9.80;102236.00;;;;10339099;28;20254;-81
2021/10/11 07:00:09;;;;;;;14.90;5.80;;;;;9.90;102238.00;;;;10323557;28;20207;-80
2021/10/11 07:05:11;;;;;;;16.83;5.90;;;;;10.20;102250.00;;;;10323345;28;20262;-81
2021/10/11 07:10:13;;;;;;;15.30;6.50;;;;;10.40;102253.00;;;;10355569;28;20204;-80
2021/10/11 07:15:14;;;;;;;20.03;6.77;;;;;10.50;102258.00;;;;10323096;28;20299;-80
2021/10/11 07:20:16;;;;;;;15.70;6.13;;;;;10.60;102260.00;;;;10339691;28;20199;-80
2021/10/11 07:25:17;;;;;;;12.17;5.43;;;;;10.80;102261.00;;;;10324871;28;20606;-81
2021/10/11 07:30:23;;;;;;;14.47;5.97;;;;;10.90;102272.00;;;;10350976;28;20195;-81
2021/10/11 07:35:25;;;;;;;13.97;6.40;;;;;11.00;102288.00;;;;10353878;28;20234;-80
2021/10/11 07:40:26;;;;;;;25.33;6.37;;;;;11.20;102303.00;;;;10322153;28;20614;-81
2021/10/11 07:45:27;;;;;;;18.87;7.07;;;;;11.40;102307.00;;;;10322486;28;20231;-81
2021/10/11 07:50:29;;;;;;;20.27;7.23;;;;;11.50;102302.00;;;;10321905;28;20192;-81
2021/10/11 07:55:31;;;;;;;24.60;7.50;;;;;11.60;102298.00;;;;10337712;28;20227;-81
2021/10/11 08:00:32;;;;;;;14.90;6.50;;;;;11.70;102311.00;;;;10322046;28;20300;-81
2021/10/11 08:05:34;;;;;;;18.77;6.83;;;;;11.80;102317.00;;;;10337751;28;20219;-81
2021/10/11 08:10:36;;;;;;;17.53;7.30;;;;;12.00;102299.00;;;;10313216;28;20219;-80
2021/10/11 08:15:37;;;;;;;16.97;7.10;;;;;12.30;102320.00;;;;10323781;28;20632;-81
2021/10/11 08:20:38;;;;;;;17.20;7.13;;;;;12.80;102326.00;;;;10352636;28;20218;-81
2021/10/11 08:25:40;;;;;;;25.43;7.63;;;;;13.20;102328.00;;;;10321498;28;20626;-81
2021/10/11 08:30:42;;;;;;;17.73;7.17;;;;;13.50;102328.00;;;;10336827;28;20207;-81
2021/10/11 08:35:44;;;;;;;15.63;6.23;;;;;13.70;102331.00;;;;10320020;28;20211;-81
2021/10/11 08:40:47;;;;;;;17.87;5.73;;;;;13.80;102345.00;;;;10336739;28;20191;-81
2021/10/11 08:45:51;;;;;;;16.93;6.50;;;;;13.90;102346.00;;;;10313462;28;20224;-81
2021/10/11 08:50:52;;;;;;;13.90;6.30;;;;;14.00;102349.00;;;;10319906;28;20207;-81
2021/10/11 08:55:53;;;;;;;17.73;5.50;;;;;14.30;102351.00;;;;10352558;28;20712;-80
2021/10/11 09:01:08;;;;;;;11.50;4.77;;;;;14.70;102344.00;;;;10310214;28;20207;-80
2021/10/11 09:06:12;;;;;;;14.47;5.13;;;;;15.30;102338.00;;;;10275436;28;20238;-80
2021/10/11 09:11:14;;;;;;;13.83;4.57;;;;;15.60;102344.00;;;;10375378;28;20663;-80
2021/10/11 09:16:18;;;;;;;7.77;4.07;;;;;15.70;102355.00;;;;10327433;28;20211;-80
2021/10/11 09:21:34;;;;;;;9.97;3.97;;;;;15.90;102346.00;;;;10318412;28;20299;-81
2021/10/11 09:26:47;;;;;;;14.37;4.50;;;;;15.70;102351.00;;;;10345460;28;20319;-80
2021/10/11 09:31:49;;;;;;;10.00;3.92;;;;;15.70;102347.00;;;;10341340;28;20195;-80
2021/10/11 09:37:00;;;;;;;13.15;3.60;;;;;15.70;102337.00;;;;10341950;28;20192;-80
2021/10/11 09:42:03;;;;;;;12.73;3.33;;;;;15.90;102343.00;;;;10341962;28;20218;-80
2021/10/11 09:47:09;;;;;;;12.23;3.05;;;;;15.70;102341.00;;;;10325321;28;20346;-80
2021/10/11 09:52:11;;;;;;;11.97;3.27;;;;;15.40;102332.00;;;;10325167;28;20203;-80
2021/10/11 09:57:12;;;;;;;10.25;3.05;;;;;15.10;102332.00;;;;10340896;28;20249;-80
2021/10/11 10:02:17;;;;;;;15.03;3.53;;;;;14.80;102337.00;;;;10356967;28;20215;-80
2021/10/11 10:07:19;;;;;;;9.20;3.30;;;;;14.60;102330.00;;;;10339435;28;20217;-78
2021/10/11 10:12:21;;;;;;;14.20;3.60;;;;;14.60;102338.00;;;;10339381;28;20203;-79
2021/10/11 10:17:34;;;;;;;12.20;4.43;;;;;14.70;102334.00;;;;10318909;28;20204;-80
2021/10/11 10:22:49;;;;;;;9.60;3.77;;;;;14.70;102328.00;;;;10355627;28;20215;-79
2021/10/11 10:27:54;;;;;;;12.60;3.37;;;;;14.90;102333.00;;;;10356453;28;20200;-79
2021/10/11 10:32:58;;;;;;;11.27;3.63;;;;;15.20;102323.00;;;;10337993;28;20873;-79
2021/10/11 10:38:00;;;;;;;9.33;4.10;;;;;15.40;102326.00;;;;10301153;28;20933;-79
2021/10/11 10:43:10;;;;;;;9.77;3.60;;;;;15.70;102334.00;;;;10313649;28;20226;-79
2021/10/11 10:48:31;;;;;;;14.13;4.10;;;;;16.20;102323.00;;;;10298150;28;20212;-80
2021/10/11 10:53:32;;;;;;;13.88;4.05;;;;;16.70;102328.00;;;;10332239;28;20199;-79
2021/10/11 10:58:33;;;;;;;7.57;3.50;;;;;16.70;102330.00;;;;10321723;28;20708;-79
2021/10/11 11:03:34;;;;;;;13.60;4.28;;;;;16.60;102323.00;;;;10337645;28;20219;-79
2021/10/11 11:08:36;;;;;;;8.40;3.22;;;;;17.10;102300.00;;;;10321511;28;20211;-79
2021/10/11 11:13:37;;;;;;;9.35;4.53;;;;;17.60;102301.00;;;;10353509;28;20707;-79
2021/10/11 11:18:38;;;;;;;10.52;3.92;;;;;17.90;102297.00;;;;10341952;28;20207;-79
2021/10/11 11:23:44;;;;;;;6.45;2.70;;;;;18.10;102283.00;;;;10334626;28;20231;-80
2021/10/11 11:28:46;;;;;;;8.45;2.95;;;;;18.00;102284.00;;;;10337203;28;20203;-79
2021/10/11 11:33:50;;;;;;;8.02;3.00;;;;;18.10;102296.00;;;;10336083;28;20196;-79
2021/10/11 11:38:52;;;;;;;9.40;3.33;;;;;17.90;102294.00;;;;10353181;28;20210;-80
2021/10/11 11:43:56;;;;;;;14.77;3.80;;;;;18.30;102284.00;;;;10352331;28;20760;-79
2021/10/11 11:48:58;;;;;;;13.80;3.10;;;;;18.80;102272.00;;;;10319198;28;20235;-79
2021/10/11 11:54:00;;;;;;;8.93;2.80;;;;;18.90;102272.00;;;;10331426;28;20231;-79
2021/10/11 11:59:02;;;;;;;7.95;2.47;;;;;18.60;102258.00;;;;10297474;28;20207;-79
2021/10/11 12:04:07;;;;;;;8.75;2.38;;;;;18.40;102262.00;;;;10311498;28;20278;-79
2021/10/11 12:09:09;;;;;;;11.68;2.75;;;;;17.70;102264.00;;;;10294996;28;20204;-79
2021/10/11 12:14:11;;;;;;;7.22;2.95;;;;;16.90;102244.00;;;;10332969;28;20199;-79
2021/10/11 12:19:12;;;;;;;7.90;3.08;;;;;16.10;102240.00;;;;10319805;28;20297;-80
2021/10/11 12:24:13;;;;;;;11.80;3.30;;;;;15.90;102239.00;;;;10304525;28;20230;-80
2021/10/11 12:29:15;;;;;;;10.07;2.45;;;;;16.10;102255.00;;;;10318852;28;20207;-79
2021/10/11 12:34:16;;;;;;;7.50;2.60;;;;;16.40;102253.00;;;;10335866;28;20207;-79
2021/10/11 12:39:20;;;;;;;9.18;3.13;;;;;16.80;102248.00;;;;10333111;28;20203;-79
2021/10/11 12:44:35;;;;;;;9.63;2.70;;;;;17.20;102238.00;;;;10350699;28;20248;-79
2021/10/11 12:49:38;;;;;;;10.68;2.40;;;;;17.90;102229.00;;;;10318757;28;20831;-79
2021/10/11 12:54:40;;;;;;;7.65;1.75;;;;;18.20;102231.00;;;;10350244;28;20339;-80
2021/10/11 12:59:41;;;;;;;9.13;2.22;;;;;18.10;102232.00;;;;10333824;28;20227;-79
2021/10/11 13:04:43;;;;;;;5.93;1.77;;;;;17.80;102223.00;;;;10302089;28;20231;-79
2021/10/11 13:09:44;;;;;;;5.38;1.63;;;;;17.10;102230.00;;;;10335262;28;20217;-79
2021/10/11 13:14:45;;;;;;;8.48;1.88;;;;;16.60;102228.00;;;;10350408;28;20191;-79
2021/10/11 13:19:46;;;;;;;8.85;1.67;;;;;16.40;102228.00;;;;10318231;28;20913;-79
2021/10/11 13:24:48;;;;;;;6.93;1.83;;;;;16.40;102233.00;;;;10300543;28;20318;-79
2021/10/11 14:28:15;;;;;;;7.45;1.20;;;;;16.00;102199.00;;;;10354487;28;20207;-79
2021/10/11 16:08:36;;;;;;;7.30;2.20;;;;;13.90;102194.00;;;;10326570;28;20196;-79
2021/10/11 16:13:37;;;;;;;6.53;2.27;;;;;13.90;102203.00;;;;10309346;28;20586;-79
2021/10/11 16:18:39;;;;;;;6.27;1.83;;;;;13.80;102200.00;;;;10342326;28;20298;-79
2021/10/11 16:23:43;;;;;;;7.17;1.60;;;;;13.80;102205.00;;;;10283228;28;20949;-79
2021/10/11 16:28:45;;;;;;;7.07;1.50;;;;;13.70;102210.00;;;;10302127;28;20290;-79
2021/10/11 16:33:48;;;;;;;8.37;1.80;;;;;13.60;102210.00;;;;10322875;28;20298;-79
2021/10/11 16:38:49;;;;;;;6.90;1.80;;;;;13.50;102212.00;;;;10318325;28;20571;-79
2021/10/11 16:43:50;;;;;;;9.17;2.87;;;;;13.50;102214.00;;;;10333759;28;20231;-79
2021/10/11 16:48:52;;;;;;;6.47;2.17;;;;;13.50;102212.00;;;;10350371;28;20229;-79
2021/10/11 16:59:03;;;;;;;8.30;2.10;;;;;13.20;102218.00;;;;10349527;28;20245;-79
2021/10/11 17:04:06;;;;;;;10.03;2.07;;;;;13.10;102213.00;;;;10332582;28;20219;-79
2021/10/11 17:09:07;;;;;;;8.27;2.10;;;;;13.00;102224.00;;;;10333059;28;20203;-80
2021/10/11 17:14:09;;;;;;;7.73;2.47;;;;;12.90;102229.00;;;;10333163;28;20859;-79
2021/10/11 17:19:10;;;;;;;4.53;2.20;;;;;12.70;102228.00;;;;10332679;28;20211;-79
2021/10/11 17:24:11;;;;;;;7.63;2.37;;;;;12.60;102224.00;;;;10336828;28;20697;-79
2021/10/11 17:29:15;;;;;;;6.00;2.67;;;;;12.40;102225.00;;;;10321021;28;20211;-79
2021/10/11 17:34:16;;;;;;;10.23;4.30;;;;;12.30;102229.00;;;;10327869;28;20233;-80
2021/10/11 17:39:17;;;;;;;9.90;3.33;;;;;12.10;102238.00;;;;10308435;28;20230;-79
2021/10/11 17:44:19;;;;;;;9.43;3.20;;;;;12.00;102225.00;;;;10306532;28;20228;-79
2021/10/11 17:49:20;;;;;;;9.90;2.63;;;;;11.90;102231.00;;;;10283284;28;20200;-79
2021/10/11 17:54:21;;;;;;;10.40;2.43;;;;;11.90;102221.00;;;;10298075;28;20246;-79
2021/10/11 17:59:23;;;;;;;9.93;2.57;;;;;11.80;102224.00;;;;10318359;28;20202;-79
2021/10/11 18:04:24;;;;;;;9.53;2.40;;;;;11.60;102222.00;;;;10353952;28;20223;-79
2021/10/11 18:09:25;;;;;;;6.80;2.33;;;;;11.50;102219.00;;;;10338832;28;20200;-79
2021/10/11 18:14:26;;;;;;;9.57;2.57;;;;;11.40;102216.00;;;;10338767;28;20277;-79
2021/10/11 18:19:28;;;;;;;9.33;3.63;;;;;11.30;102214.00;;;;10338730;28;20567;-79
2021/10/11 18:24:29;;;;;;;12.77;3.67;;;;;11.10;102216.00;;;;10337694;28;20222;-79
2021/10/11 18:29:30;;;;;;;4.53;2.43;;;;;11.10;102212.00;;;;10337138;28;20203;-79
2021/10/11 18:34:32;;;;;;;12.00;3.13;;;;;11.20;102212.00;;;;10302799;28;20248;-79
2021/10/11 18:39:33;;;;;;;13.17;2.80;;;;;11.20;102219.00;;;;10320421;28;20203;-79
2021/10/11 18:44:34;;;;;;;9.57;3.10;;;;;11.10;102210.00;;;;10320169;28;20550;-78
2021/10/11 18:49:36;;;;;;;11.60;3.27;;;;;11.00;102211.00;;;;10352239;28;20211;-78
2021/10/11 18:54:37;;;;;;;11.17;3.40;;;;;11.00;102211.00;;;;10335337;28;20215;-79
2021/10/11 18:59:38;;;;;;;8.47;2.67;;;;;10.90;102216.00;;;;10303436;28;20655;-79
2021/10/11 19:04:40;;;;;;;11.23;2.97;;;;;10.90;102219.00;;;;10335258;28;20273;-79
2021/10/11 19:09:41;;;;;;;12.70;2.70;;;;;11.00;102218.00;;;;10335457;28;20195;-78
2021/10/11 19:14:42;;;;;;;9.10;4.23;;;;;10.90;102211.00;;;;10334750;28;20598;-79
2021/10/11 19:19:44;;;;;;;9.93;3.27;;;;;10.80;102205.00;;;;10301185;28;20196;-78
2021/10/11 19:24:45;;;;;;;9.07;2.90;;;;;10.80;102216.00;;;;10324125;28;20207;-79
2021/10/11 19:29:46;;;;;;;8.10;2.27;;;;;10.70;102208.00;;;;10301822;28;20546;-79
2021/10/11 19:34:47;;;;;;;10.77;4.20;;;;;10.50;102210.00;;;;10302684;28;20697;-78
2021/10/11 19:39:48;;;;;;;9.87;3.60;;;;;10.40;102207.00;;;;10302305;28;20207;-79
2021/10/11 19:44:49;;;;;;;13.13;4.00;;;;;10.20;102200.00;;;;10317970;28;20224;-79
2021/10/11 19:49:51;;;;;;;14.13;3.60;;;;;10.10;102192.00;;;;10312150;28;20203;-78
2021/10/11 19:54:52;;;;;;;14.17;4.40;;;;;10.10;102182.00;;;;10333815;28;20235;-79
2021/10/11 19:59:54;;;;;;;13.43;4.03;;;;;10.00;102166.00;;;;10332788;28;20203;-79
2021/10/11 20:04:55;;;;;;;20.23;4.60;;;;;10.00;102163.00;;;;10282100;28;20575;-78
2021/10/11 20:09:58;;;;;;;13.33;3.80;;;;;9.90;102167.00;;;;10334227;28;20662;-78
2021/10/11 20:14:59;;;;;;;18.17;3.93;;;;;9.80;102164.00;;;;10316849;28;20207;-78
2021/10/11 20:20:01;;;;;;;16.70;3.97;;;;;9.70;102170.00;;;;10332350;28;20203;-78
2021/10/11 20:25:07;;;;;;;12.87;3.80;;;;;9.60;102168.00;;;;10316362;28;20227;-78
2021/10/11 20:30:10;;;;;;;11.60;4.73;;;;;9.60;102162.00;;;;10295439;28;20212;-79
2021/10/11 20:35:15;;;;;;;13.40;4.70;;;;;9.60;102160.00;;;;10332463;28;20346;-79
2021/10/11 20:40:16;;;;;;;14.20;4.53;;;;;9.50;102146.00;;;;10316817;28;20249;-79
2021/10/11 20:45:17;;;;;;;15.90;4.50;;;;;9.50;102147.00;;;;10331677;28;20220;-78
2021/10/11 20:50:18;;;;;;;14.57;4.10;;;;;9.40;102134.00;;;;10332974;28;20203;-78
2021/10/11 20:55:19;;;;;;;11.50;4.10;;;;;9.40;102138.00;;;;10315980;28;20215;-78
2021/10/11 21:00:22;;;;;;;12.27;4.23;;;;;9.30;102139.00;;;;10330323;28;20203;-78
2021/10/11 21:05:23;;;;;;;12.87;4.10;;;;;9.30;102144.00;;;;10331762;28;20211;-78
2021/10/11 21:10:24;;;;;;;11.53;4.27;;;;;9.20;102146.00;;;;10331703;28;20203;-78
2021/10/11 21:15:26;;;;;;;14.00;4.83;;;;;9.10;102149.00;;;;10331187;28;20203;-78
2021/10/11 21:20:27;;;;;;;26.77;6.20;;;;;9.00;102150.00;;;;10316882;28;20298;-78
2021/10/11 21:25:28;;;;;;;12.17;4.90;;;;;8.90;102140.00;;;;10331700;28;20219;-78
2021/10/11 21:30:30;;;;;;;11.73;5.53;;;;;8.90;102135.00;;;;10315934;28;20234;-78
2021/10/11 21:35:32;;;;;;;11.77;5.27;;;;;8.90;102141.00;;;;10332952;28;20226;-78
2021/10/11 21:40:33;;;;;;;13.63;5.90;;;;;9.00;102150.00;;;;10316371;28;20306;-78
2021/10/11 21:45:34;;;;;;;12.77;5.60;;;;;9.00;102150.00;;;;10332632;28;20223;-78
2021/10/11 21:50:36;;;;;;;10.87;5.50;;;;;9.00;102167.00;;;;10314535;28;20239;-79
2021/10/11 21:55:38;;;;;;;15.30;5.87;;;;;9.00;102155.00;;;;10310931;28;20239;-78
2021/10/11 22:00:47;;;;;;;11.90;5.00;;;;;9.00;102151.00;;;;10326540;28;20206;-79
2021/10/11 22:05:49;;;;;;;18.83;6.43;;;;;9.00;102145.00;;;;10315749;28;20314;-78
2021/10/11 22:10:53;;;;;;;12.57;5.90;;;;;9.10;102146.00;;;;10319470;28;20204;-78
2021/10/11 22:15:54;;;;;;;11.77;6.13;;;;;9.20;102143.00;;;;10338573;28;20196;-78
2021/10/11 22:20:55;;;;;;;23.37;7.13;;;;;9.20;102132.00;;;;10338009;28;20203;-78
2021/10/11 22:25:58;;;;;;;13.80;6.17;;;;;9.30;102119.00;;;;10322001;28;20207;-78
2021/10/11 22:30:59;;;;;;;23.40;7.43;;;;;9.30;102135.00;;;;10302503;28;20211;-78
2021/10/11 22:36:00;;;;;;;16.67;7.23;;;;;9.40;102136.00;;;;10266370;28;20228;-78
2021/10/11 22:41:02;;;;;;;17.27;7.10;;;;;9.50;102130.00;;;;10313708;28;20246;-78
2021/10/11 22:46:03;;;;;;;22.10;6.87;;;;;9.70;102133.00;;;;10344079;28;20234;-78
2021/10/11 22:51:07;;;;;;;15.80;7.03;;;;;9.70;102117.00;;;;10289338;28;20199;-78
2021/10/11 22:56:08;;;;;;;20.40;7.13;;;;;9.80;102114.00;;;;10320414;28;20235;-78
2021/10/11 23:01:09;;;;;;;14.70;6.60;;;;;9.80;102118.00;;;;10337123;28;20203;-78
2021/10/11 23:06:11;;;;;;;14.37;6.97;;;;;9.90;102122.00;;;;10321101;28;20226;-78
2021/10/11 23:11:12;;;;;;;14.90;6.50;;;;;9.90;102122.00;;;;10336549;28;20254;-79
2021/10/11 23:16:13;;;;;;;14.13;6.17;;;;;9.90;102143.00;;;;10337242;28;20200;-78
2021/10/11 23:21:15;;;;;;;20.13;6.00;;;;;10.00;102117.00;;;;10352197;28;20196;-78
2021/10/11 23:26:16;;;;;;;17.97;6.07;;;;;10.00;102086.00;;;;10335707;28;20207;-78
2021/10/11 23:31:17;;;;;;;20.03;5.40;;;;;10.00;102087.00;;;;10336462;28;20200;-78
2021/10/11 23:36:19;;;;;;;13.60;5.40;;;;;10.00;102098.00;;;;10368666;28;20257;-79
2021/10/11 23:41:21;;;;;;;10.13;5.73;;;;;10.00;102088.00;;;;10320912;28;20210;-78
2021/10/11 23:46:24;;;;;;;14.13;5.80;;;;;10.00;102077.00;;;;10319583;28;20966;-78
2021/10/11 23:51:25;;;;;;;17.70;6.10;;;;;9.90;102089.00;;;;10335343;28;20204;-78
2021/10/11 23:56:27;;;;;;;26.10;5.97;;;;;9.90;102071.00;;;;10351430;28;20368;-78
